Time;durP1;ratioP1;P1;durP2;ratioP2;P2;SDS_P1;SDS_P2;PMS_P1;PMS_P2;Temp;Humidity;BMP_temperature;BMP_pressure;BME280_temperature;BME280_humidity;BME280_pressure;Samples;Min_cycle;Max_cycle;Signal;HPM_P1;HPM_P2
2021/11/26 07:32:12;;;;;;;15.63;10.03;;;3.50;84.60;;;;;;1958100;72;25913;-47
2021/11/26 07:34:42;;;;;;;16.50;10.08;;;3.60;84.80;;;;;;1917579;75;21117;-48
2021/11/26 07:37:12;;;;;;;16.95;9.50;;;3.60;84.50;;;;;;1917550;75;20995;-45
2021/11/26 07:39:41;;;;;;;16.60;9.23;;;3.70;84.20;;;;;;1917517;75;21023;-46
2021/11/26 07:42:12;;;;;;;18.20;10.72;;;3.80;84.60;;;;;;1917573;75;21027;-47
2021/11/26 07:44:43;;;;;;;26.40;10.55;;;3.80;84.30;;;;;;1917816;74;21183;-46
2021/11/26 07:47:15;;;;;;;21.37;11.50;;;3.90;84.40;;;;;;1917568;74;21011;-50
2021/11/26 07:49:45;;;;;;;19.62;10.75;;;3.90;84.90;;;;;;1917681;75;21057;-45
2021/11/26 07:52:14;;;;;;;21.75;12.00;;;4.10;85.50;;;;;;1917597;75;21066;-44
2021/11/26 07:54:43;;;;;;;24.60;11.93;;;4.30;86.20;;;;;;1917577;73;21077;-45
2021/11/26 07:57:13;;;;;;;22.80;12.30;;;4.40;85.00;;;;;;1918022;75;21134;-45
2021/11/26 07:59:42;;;;;;;23.30;13.65;;;4.60;85.70;;;;;;1917742;75;20995;-48
2021/11/26 08:02:12;;;;;;;19.05;11.73;;;4.80;85.60;;;;;;1907686;75;21011;-45
2021/11/26 08:04:42;;;;;;;18.50;11.65;;;5.00;85.50;;;;;;1885213;76;21076;-46
2021/11/26 08:07:11;;;;;;;21.55;11.33;;;5.10;85.00;;;;;;1885112;76;21058;-48
2021/11/26 08:09:40;;;;;;;26.40;13.00;;;5.20;85.10;;;;;;1884848;76;21031;-49
2021/11/26 08:12:10;;;;;;;21.00;11.65;;;5.30;84.20;;;;;;1885120;76;21078;-47
2021/11/26 08:14:39;;;;;;;23.55;10.68;;;5.40;84.90;;;;;;1884977;76;21100;-50
2021/11/26 08:17:09;;;;;;;18.57;9.58;;;5.40;84.80;;;;;;1885090;76;21093;-47
2021/11/26 08:19:38;;;;;;;16.20;9.30;;;5.50;85.00;;;;;;1885044;75;21042;-47
2021/11/26 08:22:08;;;;;;;14.13;9.45;;;5.60;84.90;;;;;;1884946;76;21092;-47
2021/11/26 08:24:37;;;;;;;23.47;10.35;;;5.70;85.00;;;;;;1885099;76;21014;-47
2021/11/26 08:27:06;;;;;;;18.27;11.15;;;5.70;85.10;;;;;;1885054;76;21062;-48
2021/11/26 08:29:36;;;;;;;16.37;9.30;;;5.80;84.50;;;;;;1885081;76;20995;-47
2021/11/26 08:32:06;;;;;;;17.35;10.00;;;5.90;84.80;;;;;;1889367;76;21115;-46
2021/11/26 08:34:36;;;;;;;18.05;10.30;;;5.90;84.90;;;;;;1891688;76;21116;-46
2021/11/26 08:37:05;;;;;;;17.27;9.48;;;6.00;84.90;;;;;;1891495;76;21097;-47
2021/11/26 08:39:35;;;;;;;16.82;10.10;;;6.00;84.90;;;;;;1891415;75;21030;-49
2021/11/26 08:42:04;;;;;;;10.58;8.08;;;6.10;86.10;;;;;;1891262;76;21065;-46
2021/11/26 08:44:34;;;;;;;15.83;10.25;;;6.30;87.20;;;;;;1890952;76;21063;-47
2021/11/26 08:47:03;;;;;;;13.35;9.45;;;6.50;88.30;;;;;;1890859;76;21082;-46
2021/11/26 08:49:32;;;;;;;19.52;10.98;;;6.80;87.70;;;;;;1890864;76;21152;-47
2021/11/26 08:52:02;;;;;;;17.12;9.73;;;7.00;87.50;;;;;;1890735;76;21092;-46
2021/11/26 08:54:33;;;;;;;16.32;9.88;;;7.20;86.80;;;;;;1890747;76;21085;-51
2021/11/26 08:57:03;;;;;;;20.45;12.05;;;7.30;86.60;;;;;;1890942;76;21096;-47
2021/11/26 08:59:33;;;;;;;19.80;9.53;;;7.30;86.30;;;;;;1890846;76;21066;-47
2021/11/26 09:02:02;;;;;;;17.65;10.82;;;7.50;86.00;;;;;;1890757;76;21034;-45
2021/11/26 09:04:33;;;;;;;16.25;10.65;;;7.50;86.00;;;;;;1890953;76;20995;-46
2021/11/26 09:07:02;;;;;;;17.12;8.80;;;7.60;85.50;;;;;;1890853;76;21115;-48
2021/11/26 09:09:31;;;;;;;17.73;10.10;;;7.70;85.30;;;;;;1890804;76;21067;-51
2021/11/26 09:12:03;;;;;;;18.52;11.08;;;7.80;85.30;;;;;;1890718;76;21160;-46
2021/11/26 09:14:32;;;;;;;17.85;10.32;;;7.90;85.20;;;;;;1890903;76;21034;-48
2021/11/26 09:17:02;;;;;;;15.95;9.40;;;8.00;85.10;;;;;;1890732;76;21089;-48
2021/11/26 09:19:31;;;;;;;15.58;9.83;;;8.10;83.90;;;;;;1890853;75;21132;-48
2021/11/26 09:22:00;;;;;;;14.43;10.55;;;8.20;83.30;;;;;;1890798;76;21006;-48
2021/11/26 09:24:30;;;;;;;17.32;9.95;;;8.30;83.40;;;;;;1890693;76;21030;-50
2021/11/26 09:26:59;;;;;;;16.25;8.73;;;8.30;83.70;;;;;;1890843;76;21100;-49
2021/11/26 09:29:29;;;;;;;14.07;9.75;;;8.40;83.80;;;;;;1890907;75;21092;-51
2021/11/26 09:31:58;;;;;;;11.60;8.18;;;8.40;83.50;;;;;;1882442;76;21072;-48
2021/11/26 09:34:28;;;;;;;20.88;10.20;;;8.50;82.40;;;;;;1872096;77;21089;-48
2021/11/26 09:36:58;;;;;;;20.02;12.15;;;8.60;81.90;;;;;;1872080;77;21035;-49
2021/11/26 09:39:28;;;;;;;19.73;11.83;;;8.70;82.10;;;;;;1871902;77;21088;-47
2021/11/26 09:41:57;;;;;;;17.87;9.88;;;8.80;82.20;;;;;;1872110;77;21144;-46
2021/11/26 09:44:32;;;;;;;17.67;9.88;;;8.80;81.60;;;;;;1872073;77;21059;-45
2021/11/26 09:46:58;;;;;;;15.83;11.22;;;8.90;80.10;;;;;;1871748;76;21102;-46
2021/11/26 09:49:27;;;;;;;20.55;10.65;;;9.00;80.40;;;;;;1872135;77;21089;-46
2021/11/26 09:51:57;;;;;;;14.13;8.90;;;9.00;80.00;;;;;;1871935;76;21039;-45
2021/11/26 09:54:27;;;;;;;11.33;7.92;;;9.10;78.60;;;;;;1872031;76;21070;-48
2021/11/26 09:56:56;;;;;;;17.20;8.85;;;9.10;77.30;;;;;;1872133;77;21031;-44
2021/11/26 09:59:25;;;;;;;14.55;8.60;;;9.10;77.50;;;;;;1871946;77;21097;-45
2021/11/26 10:01:56;;;;;;;62.15;11.48;;;9.10;77.50;;;;;;1872095;77;21011;-49
2021/11/26 10:04:26;;;;;;;20.68;7.95;;;9.10;77.70;;;;;;1872344;77;21096;-49
2021/11/26 10:06:57;;;;;;;29.55;9.90;;;9.20;77.70;;;;;;1871947;77;21141;-48
2021/11/26 10:09:27;;;;;;;29.50;9.03;;;9.20;76.60;;;;;;1871791;76;21027;-50
2021/11/26 10:11:58;;;;;;;29.45;10.72;;;9.20;77.20;;;;;;1872122;77;21031;-50
2021/11/26 10:14:30;;;;;;;24.87;8.75;;;9.30;76.80;;;;;;1871924;77;21501;-49
2021/11/26 10:17:16;;;;;;;26.57;7.87;;;9.30;76.60;;;;;;1872182;77;21121;-49
2021/11/26 10:19:47;;;;;;;23.20;8.98;;;9.40;75.70;;;;;;1870094;76;21019;-49
2021/11/26 10:22:20;;;;;;;18.20;9.28;;;9.50;76.50;;;;;;1872098;77;21126;-48
2021/11/26 10:25:16;;;;;;;19.95;7.95;;;9.40;75.50;;;;;;1872214;77;21066;-49
2021/11/26 10:27:57;;;;;;;17.35;6.45;;;9.50;75.70;;;;;;1872061;77;21136;-48
2021/11/26 10:30:36;;;;;;;11.35;7.97;;;9.60;75.00;;;;;;1872091;77;21070;-47
2021/11/26 10:33:17;;;;;;;9.45;6.35;;;9.60;75.70;;;;;;1885015;76;21066;-46
2021/11/26 10:35:49;;;;;;;15.58;6.78;;;9.60;74.50;;;;;;1890767;75;21164;-48
2021/11/26 10:38:21;;;;;;;16.48;7.55;;;9.60;74.60;;;;;;1890808;75;21135;-48
2021/11/26 10:41:04;;;;;;;19.52;8.85;;;9.60;75.10;;;;;;1889917;75;21093;-48
2021/11/26 11:00:02;;;;;;;13.53;9.60;;;9.90;75.10;;;;;;1890933;75;21022;-48
2021/11/26 11:02:36;;;;;;;9.28;7.08;;;9.90;74.60;;;;;;1890630;75;21139;-49
2021/11/26 11:05:08;;;;;;;20.23;12.35;;;9.90;74.50;;;;;;1890797;76;21626;-47
2021/11/26 11:07:45;;;;;;;12.40;7.85;;;10.00;74.20;;;;;;1888102;75;21023;-47
2021/11/26 11:10:17;;;;;;;15.85;10.00;;;10.00;74.30;;;;;;1890798;76;21073;-51
2021/11/26 11:12:47;;;;;;;17.42;10.18;;;10.00;74.00;;;;;;1889821;75;21171;-48
2021/11/26 11:15:17;;;;;;;14.23;9.05;;;10.00;74.40;;;;;;1890859;76;21081;-49
2021/11/26 11:17:47;;;;;;;12.85;8.73;;;10.10;73.30;;;;;;1890771;76;21073;-49
2021/11/26 11:20:17;;;;;;;9.23;7.28;;;10.10;73.40;;;;;;1890738;76;21046;-48
2021/11/26 11:22:47;;;;;;;12.90;7.22;;;10.00;72.90;;;;;;1891357;76;21037;-54
2021/11/26 11:25:24;;;;;;;15.55;10.43;;;9.90;72.90;;;;;;1891510;76;21014;-54
2021/11/26 11:27:50;;;;;;;24.85;14.15;;;9.80;73.20;;;;;;1890803;75;21088;-52
2021/11/26 11:30:19;;;;;;;21.15;12.37;;;9.60;73.30;;;;;;1891511;75;21080;-54
2021/11/26 11:32:49;;;;;;;8.98;5.97;;;9.40;73.40;;;;;;1891387;76;21120;-54
2021/11/26 11:35:23;;;;;;;10.00;7.10;;;9.30;73.40;;;;;;1891490;76;21034;-54
2021/11/26 11:37:57;;;;;;;14.78;8.03;;;9.10;73.70;;;;;;1891689;76;21023;-51
2021/11/26 11:40:35;;;;;;;15.65;7.50;;;9.00;74.10;;;;;;1891589;76;21409;-54
2021/11/26 11:43:13;;;;;;;20.05;9.85;;;8.90;74.30;;;;;;1891398;76;21046;-55
2021/11/26 11:45:57;;;;;;;23.77;11.48;;;8.90;74.80;;;;;;1888050;75;21088;-53
2021/11/26 11:48:29;;;;;;;25.77;12.63;;;8.80;74.80;;;;;;1891432;76;21093;-54
2021/11/26 11:50:59;;;;;;;18.27;8.93;;;8.70;75.10;;;;;;1891594;76;21066;-53
2021/11/26 11:53:34;;;;;;;16.87;7.65;;;8.60;75.30;;;;;;1891390;75;21171;-53
2021/11/26 11:56:09;;;;;;;16.30;8.30;;;8.60;75.30;;;;;;1891497;76;21034;-50
2021/11/26 11:58:53;;;;;;;10.08;6.00;;;8.50;75.50;;;;;;1891645;76;21476;-53
2021/11/26 12:01:28;;;;;;;13.38;7.30;;;8.50;75.20;;;;;;1891456;76;20982;-52
2021/11/26 12:03:59;;;;;;;17.25;8.70;;;8.50;75.20;;;;;;1891413;76;21038;-52
2021/11/26 12:06:40;;;;;;;17.60;8.95;;;8.50;75.40;;;;;;1891423;76;21031;-54
2021/11/26 12:09:10;;;;;;;19.60;8.68;;;8.40;75.50;;;;;;1891303;75;21104;-53
2021/11/26 12:11:40;;;;;;;14.07;8.45;;;8.40;75.70;;;;;;1890203;75;21429;-51
2021/11/26 12:14:11;;;;;;;13.25;7.92;;;8.40;75.60;;;;;;1891402;75;21038;-53
2021/11/26 12:16:53;;;;;;;13.93;8.13;;;8.40;75.80;;;;;;1891388;76;21034;-52
2021/11/26 12:19:26;;;;;;;11.25;7.20;;;8.30;76.00;;;;;;1891497;75;21018;-51
2021/11/26 12:21:57;;;;;;;14.23;8.25;;;8.30;76.10;;;;;;1891464;76;21175;-52
2021/11/26 12:24:35;;;;;;;20.88;9.78;;;8.30;76.30;;;;;;1891542;76;21031;-53
2021/11/26 12:27:06;;;;;;;20.48;8.65;;;8.30;76.40;;;;;;1891473;76;20990;-54
2021/11/26 12:29:42;;;;;;;17.95;8.90;;;8.20;76.50;;;;;;1891489;75;21047;-52
2021/11/26 12:32:17;;;;;;;15.23;9.00;;;8.20;76.60;;;;;;1891200;75;21089;-53
2021/11/26 12:34:48;;;;;;;14.43;8.28;;;8.20;76.90;;;;;;1889478;75;21046;-53
2021/11/26 12:37:24;;;;;;;18.40;10.32;;;8.20;77.10;;;;;;1891386;75;21100;-51
2021/11/26 12:39:56;;;;;;;18.67;9.73;;;8.20;77.20;;;;;;1891650;76;21085;-54
2021/11/26 12:42:26;;;;;;;21.30;10.03;;;8.20;77.60;;;;;;1891351;75;21074;-51
2021/11/26 12:45:00;;;;;;;15.03;9.13;;;8.20;77.50;;;;;;1891520;76;21078;-53
2021/11/26 12:48:05;;;;;;;14.13;9.25;;;8.20;77.80;;;;;;1891708;76;21007;-54
2021/11/26 12:53:23;;;;;;;24.10;12.10;;;8.20;78.00;;;;;;1891520;76;21132;-52
2021/11/26 12:55:58;;;;;;;18.98;10.78;;;8.20;77.70;;;;;;1891545;76;21026;-53
2021/11/26 12:58:27;;;;;;;;;;;8.20;77.90;;;;;;1894263;76;21054;-54
2021/11/26 13:01:03;;;;;;;23.27;11.85;;;8.20;78.20;;;;;;1891455;76;20415;-53
2021/11/26 13:03:34;;;;;;;27.50;12.25;;;8.20;78.00;;;;;;1891479;75;21061;-54
2021/11/26 13:06:04;;;;;;;19.60;9.73;;;8.10;77.80;;;;;;1890816;75;21084;-54
2021/11/26 13:08:34;;;;;;;16.90;9.75;;;8.20;77.90;;;;;;1891671;76;21034;-53
2021/11/26 13:11:05;;;;;;;15.28;8.28;;;8.10;77.90;;;;;;1891586;76;21429;-54
2021/11/26 13:13:36;;;;;;;15.63;8.33;;;8.10;77.90;;;;;;1891378;76;21095;-53
2021/11/26 13:16:08;;;;;;;17.87;9.13;;;8.10;78.10;;;;;;1891549;76;20990;-53
2021/11/26 13:18:37;;;;;;;16.30;10.10;;;8.00;78.20;;;;;;1890995;75;21546;-53
2021/11/26 13:21:07;;;;;;;20.57;10.78;;;8.10;78.20;;;;;;1891536;76;21030;-54
2021/11/26 13:23:38;;;;;;;16.48;9.55;;;8.00;78.20;;;;;;1891370;76;21014;-53
2021/11/26 13:26:10;;;;;;;21.10;9.70;;;8.00;78.20;;;;;;1891434;76;21058;-52
2021/11/26 13:28:45;;;;;;;15.58;9.28;;;8.00;78.00;;;;;;1891502;76;21080;-50
2021/11/26 13:31:16;;;;;;;19.48;9.90;;;8.00;78.10;;;;;;1891752;76;21034;-55
2021/11/26 13:33:48;;;;;;;19.75;10.60;;;8.00;78.20;;;;;;1890439;75;21582;-54
2021/11/26 13:36:20;;;;;;;20.80;10.32;;;7.90;78.20;;;;;;1891624;76;21477;-54
2021/11/26 13:38:55;;;;;;;17.17;10.35;;;7.90;78.30;;;;;;1890718;75;21492;-53
2021/11/26 13:41:28;;;;;;;19.60;11.60;;;7.90;78.50;;;;;;1891815;75;21046;-52
2021/11/26 13:44:09;;;;;;;23.20;12.30;;;7.90;78.60;;;;;;1891556;76;21034;-52
2021/11/26 13:46:41;;;;;;;19.37;12.40;;;7.90;78.50;;;;;;1891479;76;21084;-54
2021/11/26 13:49:19;;;;;;;18.10;11.28;;;7.90;78.70;;;;;;1891495;76;21046;-54
2021/11/26 13:51:52;;;;;;;29.52;12.60;;;7.90;78.90;;;;;;1891049;75;21039;-51
2021/11/26 13:54:24;;;;;;;25.82;13.88;;;7.90;78.90;;;;;;1891590;76;20999;-53
2021/11/26 13:56:53;;;;;;;22.48;13.60;;;7.80;78.90;;;;;;1891362;75;21054;-52
2021/11/26 13:59:25;;;;;;;21.37;12.23;;;7.80;79.10;;;;;;1891463;75;21026;-53
2021/11/26 14:02:06;;;;;;;23.10;11.97;;;7.80;79.40;;;;;;1891439;76;21076;-52
2021/11/26 14:04:36;;;;;;;24.45;11.93;;;7.80;79.50;;;;;;1891304;75;21077;-52
2021/11/26 14:07:15;;;;;;;23.22;13.48;;;7.80;79.50;;;;;;1891387;76;21081;-55
2021/11/26 14:09:46;;;;;;;20.27;12.37;;;7.80;79.70;;;;;;1891572;76;21142;-50
2021/11/26 14:12:20;;;;;;;28.25;13.43;;;7.80;79.90;;;;;;1891531;75;21209;-54
2021/11/26 14:14:51;;;;;;;27.37;14.20;;;7.80;79.80;;;;;;1891719;76;21121;-54
2021/11/26 14:17:28;;;;;;;29.52;15.40;;;7.70;79.60;;;;;;1891640;76;21084;-52
2021/11/26 14:20:05;;;;;;;30.35;16.25;;;7.70;79.70;;;;;;1891491;76;21144;-53
2021/11/26 14:22:39;;;;;;;27.98;14.18;;;7.70;80.10;;;;;;1891401;76;21022;-53
2021/11/26 14:25:13;;;;;;;32.63;15.13;;;7.60;80.00;;;;;;1891435;76;21073;-55
2021/11/26 14:27:54;;;;;;;29.12;14.90;;;7.60;80.10;;;;;;1891479;75;21046;-51
2021/11/26 14:30:25;;;;;;;28.73;15.08;;;7.60;80.30;;;;;;1891294;75;21155;-54
2021/11/26 14:33:02;;;;;;;40.23;19.65;;;7.60;80.50;;;;;;1891497;76;21386;-55
2021/11/26 14:35:32;;;;;;;42.15;24.27;;;7.50;80.50;;;;;;1891347;75;21111;-53
2021/11/26 14:38:07;;;;;;;47.38;23.35;;;7.50;80.70;;;;;;1891406;76;21014;-50
2021/11/26 14:40:38;;;;;;;37.25;18.27;;;7.40;80.70;;;;;;1891611;76;21449;-51
2021/11/26 14:43:19;;;;;;;31.80;18.67;;;7.40;80.90;;;;;;1891429;76;21096;-50
2021/11/26 14:45:52;;;;;;;34.85;18.85;;;7.40;81.10;;;;;;1891458;76;21034;-54
2021/11/26 14:48:26;;;;;;;30.72;15.72;;;7.30;81.10;;;;;;1891503;76;20978;-50
2021/11/26 14:51:18;;;;;;;35.05;19.02;;;7.30;81.30;;;;;;1891541;76;21053;-52
2021/11/26 14:53:46;;;;;;;33.90;19.17;;;7.30;81.60;;;;;;1891488;76;21098;-53
2021/11/26 14:56:17;;;;;;;38.00;20.00;;;7.30;81.80;;;;;;1891461;75;21061;-52
2021/11/26 14:58:47;;;;;;;39.80;20.48;;;7.20;81.90;;;;;;1891504;76;21050;-50
2021/11/26 15:01:32;;;;;;;33.48;18.10;;;7.30;82.00;;;;;;1891613;76;21092;-52
2021/11/26 15:04:01;;;;;;;60.67;23.92;;;7.30;82.20;;;;;;1891680;75;21026;-51
2021/11/26 15:06:32;;;;;;;61.75;25.35;;;7.20;82.20;;;;;;1891472;75;21141;-51
2021/11/26 15:09:02;;;;;;;51.53;21.05;;;7.20;82.00;;;;;;1891528;76;21014;-50
2021/11/26 15:11:33;;;;;;;51.23;19.30;;;7.20;82.10;;;;;;1891483;76;21022;-53
2021/11/26 15:14:04;;;;;;;41.35;20.45;;;7.10;82.20;;;;;;1891607;76;21026;-50
2021/11/26 15:16:33;;;;;;;48.38;21.80;;;7.10;82.70;;;;;;1891475;76;21011;-53
2021/11/26 15:19:02;;;;;;;42.05;23.20;;;7.10;82.60;;;;;;1891445;76;21090;-52
2021/11/26 15:21:32;;;;;;;49.15;23.40;;;7.00;82.80;;;;;;1891685;76;21042;-51
2021/11/26 15:24:03;;;;;;;34.88;18.52;;;7.00;82.90;;;;;;1891539;76;21076;-50
2021/11/26 15:26:32;;;;;;;38.90;20.77;;;6.90;83.10;;;;;;1891453;76;21030;-52
2021/11/26 15:29:01;;;;;;;38.75;21.17;;;6.90;83.40;;;;;;1891409;75;21015;-52
2021/11/26 15:31:31;;;;;;;51.80;28.00;;;6.90;83.70;;;;;;1891429;76;21481;-50
2021/11/26 15:34:00;;;;;;;51.68;24.07;;;6.90;83.70;;;;;;1891455;76;21018;-53
2021/11/26 15:36:30;;;;;;;53.23;26.93;;;6.80;83.70;;;;;;1874997;75;21093;-53
2021/11/26 15:38:59;;;;;;;65.67;28.95;;;6.90;83.90;;;;;;1872799;77;21539;-53
2021/11/26 15:41:29;;;;;;;71.87;27.77;;;6.90;84.00;;;;;;1872696;77;20991;-51
2021/11/26 15:43:59;;;;;;;66.87;26.87;;;6.90;83.90;;;;;;1872729;76;21093;-53
2021/11/26 15:46:28;;;;;;;60.20;27.48;;;6.90;83.80;;;;;;1872687;77;21113;-53
2021/11/26 15:48:57;;;;;;;51.65;28.00;;;6.80;83.70;;;;;;1872738;77;21081;-52
2021/11/26 15:51:27;;;;;;;47.88;24.50;;;6.80;83.60;;;;;;1872717;76;21047;-50
2021/11/26 15:53:56;;;;;;;55.78;25.37;;;6.70;83.80;;;;;;1872855;77;21128;-53
2021/11/26 15:56:26;;;;;;;66.05;31.07;;;6.70;84.00;;;;;;1872810;77;21093;-52
2021/11/26 15:58:55;;;;;;;70.85;32.50;;;6.60;84.10;;;;;;1872938;77;21031;-54
2021/11/26 16:01:26;;;;;;;60.60;30.30;;;6.60;84.30;;;;;;1872913;77;21109;-54
2021/11/26 16:03:55;;;;;;;55.85;28.42;;;6.60;84.50;;;;;;1872930;77;21121;-52
2021/11/26 16:06:27;;;;;;;53.08;28.25;;;6.60;84.50;;;;;;1872837;77;21093;-53
2021/11/26 16:08:58;;;;;;;60.52;25.20;;;6.60;84.50;;;;;;1872852;77;21179;-51
2021/11/26 16:11:29;;;;;;;53.05;25.52;;;6.60;84.80;;;;;;1872928;77;21132;-55
2021/11/26 16:14:00;;;;;;;52.67;27.65;;;6.60;84.70;;;;;;1872853;77;21075;-53
2021/11/26 16:16:30;;;;;;;66.67;31.95;;;6.60;84.90;;;;;;1872926;77;21035;-52
2021/11/26 16:18:59;;;;;;;50.30;25.70;;;6.60;85.00;;;;;;1872979;77;21088;-53
2021/11/26 16:21:29;;;;;;;45.28;25.88;;;6.60;85.10;;;;;;1872893;77;21019;-54
2021/11/26 16:23:59;;;;;;;57.05;26.45;;;6.60;85.00;;;;;;1872953;76;21031;-53
2021/11/26 16:26:28;;;;;;;44.95;24.55;;;6.60;85.20;;;;;;1873008;76;21132;-53
2021/11/26 16:28:58;;;;;;;50.38;29.10;;;6.60;85.10;;;;;;1872920;77;21023;-54
2021/11/26 16:31:39;;;;;;;52.93;28.07;;;6.50;85.40;;;;;;1872913;77;21081;-54
2021/11/26 16:34:12;;;;;;;51.65;28.95;;;6.50;85.40;;;;;;1871995;76;21469;-54
2021/11/26 16:36:46;;;;;;;52.60;29.63;;;6.50;85.50;;;;;;1872718;76;21113;-51
2021/11/26 16:39:10;;;;;;;49.63;28.65;;;6.50;85.70;;;;;;1872475;76;21066;-55
2021/11/26 16:41:39;;;;;;;67.62;30.80;;;6.60;85.70;;;;;;1872906;77;21105;-54
2021/11/26 16:44:09;;;;;;;60.58;29.18;;;6.60;85.50;;;;;;1872703;77;21034;-54
2021/11/26 16:46:44;;;;;;;60.10;32.35;;;6.60;85.40;;;;;;1872851;77;21023;-54
2021/11/26 16:49:16;;;;;;;83.50;40.00;;;6.60;85.70;;;;;;1872895;77;21026;-55
2021/11/26 16:51:49;;;;;;;76.00;39.40;;;6.60;85.70;;;;;;1873015;77;21089;-54
2021/11/26 16:54:19;;;;;;;77.80;37.17;;;6.50;85.50;;;;;;1872764;76;21050;-53
2021/11/26 16:56:49;;;;;;;58.52;33.45;;;6.50;85.70;;;;;;1872736;76;21093;-54
2021/11/26 16:59:19;;;;;;;73.35;35.50;;;6.50;85.70;;;;;;1872785;77;21039;-53
2021/11/26 17:01:49;;;;;;;64.72;32.42;;;6.50;85.70;;;;;;1872724;77;21105;-56
2021/11/26 17:04:18;;;;;;;108.32;52.45;;;6.40;85.60;;;;;;1872812;76;21011;-54
2021/11/26 17:06:48;;;;;;;78.50;38.25;;;6.50;85.80;;;;;;1872785;77;21011;-54
2021/11/26 17:09:18;;;;;;;68.12;28.47;;;6.40;85.80;;;;;;1872761;77;21051;-52
2021/11/26 17:11:47;;;;;;;57.50;27.10;;;6.40;86.10;;;;;;1872865;77;21031;-54
2021/11/26 17:14:17;;;;;;;59.30;25.80;;;6.40;86.20;;;;;;1872893;76;21070;-52
2021/11/26 17:16:47;;;;;;;58.73;26.45;;;6.40;86.30;;;;;;1872892;77;21082;-52
2021/11/26 17:19:16;;;;;;;54.90;24.47;;;6.40;86.50;;;;;;1872895;77;21117;-53
2021/11/26 17:21:45;;;;;;;50.08;22.55;;;6.40;86.20;;;;;;1872757;77;20995;-54
2021/11/26 17:24:15;;;;;;;49.60;20.23;;;6.40;86.30;;;;;;1872736;77;21101;-53
2021/11/26 17:26:44;;;;;;;45.20;21.57;;;6.40;86.40;;;;;;1872824;77;21085;-54
2021/11/26 17:29:14;;;;;;;47.80;23.85;;;6.30;86.20;;;;;;1872735;77;21097;-55
2021/11/26 17:31:43;;;;;;;41.77;20.20;;;6.30;86.90;;;;;;1872658;77;21011;-53
2021/11/26 17:34:12;;;;;;;38.50;22.85;;;6.30;86.60;;;;;;1872750;77;20991;-52
2021/11/26 17:36:41;;;;;;;44.95;23.50;;;6.30;86.70;;;;;;1872762;76;21129;-54
2021/11/26 17:39:10;;;;;;;47.40;22.22;;;6.30;86.80;;;;;;1872808;76;21426;-53
2021/11/26 17:41:40;;;;;;;47.38;23.52;;;6.30;86.80;;;;;;1872858;77;21062;-55
2021/11/26 17:44:10;;;;;;;53.87;24.60;;;6.30;86.80;;;;;;1872765;77;21104;-54
2021/11/26 17:46:40;;;;;;;62.40;27.73;;;6.30;87.00;;;;;;1872771;77;21507;-53
2021/11/26 17:49:09;;;;;;;50.08;23.87;;;6.20;87.00;;;;;;1872897;77;21011;-49
2021/11/26 17:51:39;;;;;;;58.23;24.70;;;6.20;86.90;;;;;;1872800;77;21027;-54
2021/11/26 17:54:08;;;;;;;66.33;27.02;;;6.20;87.00;;;;;;1872791;77;21031;-50
2021/11/26 17:56:38;;;;;;;46.55;22.67;;;6.10;86.70;;;;;;1872779;77;21011;-54
2021/11/26 17:59:07;;;;;;;52.80;24.15;;;6.10;87.10;;;;;;1872756;77;21015;-55
2021/11/26 18:01:38;;;;;;;50.92;26.12;;;6.10;87.30;;;;;;1872775;77;21011;-54
2021/11/26 18:04:09;;;;;;;60.40;30.60;;;6.10;87.40;;;;;;1872881;77;21066;-50
2021/11/26 18:06:39;;;;;;;61.33;29.37;;;6.10;87.60;;;;;;1872934;77;21028;-53
2021/11/26 18:09:10;;;;;;;48.13;25.48;;;6.20;87.40;;;;;;1872862;77;21023;-54
2021/11/26 18:14:10;;;;;;;51.42;26.20;;;6.20;87.30;;;;;;1872798;76;21059;-54
2021/11/26 18:16:39;;;;;;;47.70;30.40;;;6.20;87.40;;;;;;1872727;77;21027;-55
2021/11/26 18:19:09;;;;;;;72.40;31.42;;;6.20;87.60;;;;;;1872891;77;21102;-55
2021/11/26 18:21:38;;;;;;;43.42;24.07;;;6.20;87.10;;;;;;1872864;77;21031;-52
2021/11/26 18:24:08;;;;;;;44.40;24.52;;;6.10;87.10;;;;;;1872710;77;20995;-54
2021/11/26 18:26:37;;;;;;;66.22;28.05;;;6.10;87.40;;;;;;1872793;76;21031;-51
2021/11/26 18:29:06;;;;;;;43.50;25.68;;;6.10;87.60;;;;;;1872781;76;21055;-51
2021/11/26 18:31:36;;;;;;;44.50;24.30;;;6.20;87.70;;;;;;1872898;77;21043;-55
2021/11/26 18:34:06;;;;;;;43.30;25.23;;;6.20;87.60;;;;;;1872794;77;21102;-51
2021/11/26 18:36:35;;;;;;;42.62;22.22;;;6.20;87.50;;;;;;1875836;76;21042;-55
2021/11/26 18:39:09;;;;;;;52.95;24.87;;;6.30;87.70;;;;;;1891527;76;21098;-54
2021/11/26 18:41:39;;;;;;;50.85;25.70;;;6.30;87.70;;;;;;1891598;76;21030;-54
2021/11/26 18:44:18;;;;;;;49.98;24.02;;;6.30;87.80;;;;;;1891525;76;21108;-51
2021/11/26 18:46:40;;;;;;;45.10;26.15;;;6.40;87.90;;;;;;1890555;75;21465;-54
2021/11/26 18:49:10;;;;;;;52.00;24.82;;;6.40;87.70;;;;;;1891507;76;21123;-52
2021/11/26 18:51:39;;;;;;;43.30;24.80;;;6.40;87.70;;;;;;1891625;76;21076;-54
2021/11/26 18:54:08;;;;;;;48.15;24.85;;;6.40;87.70;;;;;;1891516;76;21006;-51
2021/11/26 18:56:38;;;;;;;46.55;25.30;;;6.40;87.60;;;;;;1891473;76;21054;-52
2021/11/26 18:59:07;;;;;;;46.73;25.02;;;6.50;87.60;;;;;;1891620;76;20994;-54
2021/11/26 19:01:37;;;;;;;54.70;30.15;;;6.40;87.70;;;;;;1891477;76;21147;-51
2021/11/26 19:04:06;;;;;;;45.60;24.27;;;6.40;87.50;;;;;;1891594;76;21018;-53
2021/11/26 19:06:35;;;;;;;42.93;25.37;;;6.40;87.60;;;;;;1891511;76;21019;-53
2021/11/26 19:09:05;;;;;;;47.98;27.07;;;6.30;87.70;;;;;;1891641;76;21014;-53
2021/11/26 19:11:35;;;;;;;41.58;26.12;;;6.40;87.90;;;;;;1891509;76;21015;-50
2021/11/26 19:14:04;;;;;;;44.38;25.10;;;6.40;88.10;;;;;;1891508;76;21015;-54
2021/11/26 19:16:33;;;;;;;43.45;25.72;;;6.40;88.20;;;;;;1891575;76;21072;-53
2021/11/26 19:19:03;;;;;;;37.85;24.15;;;6.40;88.10;;;;;;1891604;76;21034;-52
2021/11/26 19:21:34;;;;;;;50.52;25.88;;;6.40;88.10;;;;;;1891332;75;21030;-53
2021/11/26 19:24:04;;;;;;;43.23;24.12;;;6.50;88.20;;;;;;1891421;76;21026;-53
2021/11/26 19:26:34;;;;;;;37.25;23.27;;;6.50;88.30;;;;;;1891588;76;21011;-54
2021/11/26 19:29:04;;;;;;;43.40;23.95;;;6.60;88.30;;;;;;1891490;76;21108;-51
2021/11/26 19:31:34;;;;;;;37.90;24.20;;;6.60;88.30;;;;;;1891509;76;21015;-50
2021/11/26 19:34:04;;;;;;;42.98;23.60;;;6.60;88.40;;;;;;1891636;76;21018;-54
2021/11/26 19:36:34;;;;;;;35.80;23.95;;;6.60;88.50;;;;;;1891445;76;21014;-54
2021/11/26 19:39:05;;;;;;;43.73;24.15;;;6.60;88.30;;;;;;1891291;75;21128;-53
2021/11/26 19:41:35;;;;;;;43.63;23.70;;;6.70;88.30;;;;;;1891508;76;21062;-53
2021/11/26 19:44:06;;;;;;;38.38;23.80;;;6.70;88.30;;;;;;1891413;76;21029;-52
2021/11/26 19:46:35;;;;;;;49.05;23.98;;;6.70;88.30;;;;;;1891486;76;21156;-52
2021/11/26 19:49:05;;;;;;;44.95;24.92;;;6.70;88.40;;;;;;1891448;76;21015;-51
2021/11/26 19:51:37;;;;;;;31.93;21.60;;;6.70;88.40;;;;;;1891533;76;21476;-53
2021/11/26 19:54:08;;;;;;;45.23;26.05;;;6.70;88.40;;;;;;1891487;76;21022;-51
2021/11/26 19:56:38;;;;;;;43.50;23.05;;;6.80;88.60;;;;;;1891520;75;21124;-50
2021/11/26 19:59:07;;;;;;;41.08;22.85;;;6.80;88.40;;;;;;1891560;76;21022;-52
2021/11/26 20:01:37;;;;;;;44.80;22.93;;;6.80;88.50;;;;;;1891482;76;21080;-50
2021/11/26 20:04:07;;;;;;;49.85;31.10;;;6.80;88.30;;;;;;1891468;76;21072;-52
2021/11/26 20:06:39;;;;;;;50.80;32.95;;;6.70;88.30;;;;;;1891551;76;21034;-52
2021/11/26 20:09:17;;;;;;;40.28;31.82;;;6.70;88.60;;;;;;1891560;76;21444;-53
2021/11/26 20:11:42;;;;;;;48.90;31.10;;;6.70;88.50;;;;;;1891005;75;21114;-51
2021/11/26 20:14:18;;;;;;;44.75;29.57;;;6.70;88.70;;;;;;1891508;76;21026;-54
2021/11/26 20:16:45;;;;;;;44.38;26.27;;;6.70;88.80;;;;;;1890968;75;21018;-53
2021/11/26 20:19:15;;;;;;;44.85;31.90;;;6.70;88.50;;;;;;1891614;76;21023;-51
2021/11/26 20:21:45;;;;;;;43.08;27.55;;;6.60;88.40;;;;;;1891549;76;20994;-53
2021/11/26 20:24:15;;;;;;;47.05;28.23;;;6.60;88.50;;;;;;1891610;76;21105;-53
2021/11/26 20:26:44;;;;;;;43.73;28.55;;;6.60;88.60;;;;;;1891530;76;21002;-53
2021/11/26 20:29:15;;;;;;;43.65;27.45;;;6.50;88.80;;;;;;1891562;76;21015;-52
2021/11/26 20:31:49;;;;;;;38.83;25.70;;;6.50;88.80;;;;;;1891630;76;21022;-51
2021/11/26 20:34:16;;;;;;;46.30;27.65;;;6.50;88.70;;;;;;1891232;75;21022;-52
2021/11/26 20:36:45;;;;;;;43.63;26.80;;;6.50;88.80;;;;;;1891502;76;21073;-53
2021/11/26 20:39:16;;;;;;;40.98;24.15;;;6.40;88.80;;;;;;1891487;76;21104;-52
2021/11/26 20:41:45;;;;;;;42.55;24.35;;;6.40;88.90;;;;;;1891556;76;21014;-53
2021/11/26 20:44:15;;;;;;;50.40;24.65;;;6.50;89.00;;;;;;1891482;75;21098;-52
2021/11/26 20:46:44;;;;;;;48.58;25.68;;;6.50;89.00;;;;;;1891668;76;21006;-52
2021/11/26 20:49:14;;;;;;;51.95;24.32;;;6.50;89.10;;;;;;1891568;76;21007;-53
2021/11/26 20:51:44;;;;;;;37.00;22.32;;;6.50;89.30;;;;;;1891545;76;21042;-54
2021/11/26 20:54:15;;;;;;;39.78;20.68;;;6.50;89.00;;;;;;1891498;76;21034;-53